sensor_id;sensor_type;location;lat;lon;timestamp;P1;durP1;ratioP1;P2;durP2;ratioP2
16854;SDS011;8543;54.522;18.550;2022-09-09T00:00:41;6.10;;;2.80;;
16854;SDS011;8543;54.522;18.550;2022-09-09T00:03:12;6.40;;;2.50;;
16854;SDS011;8543;54.522;18.550;2022-09-09T00:06:28;6.30;;;2.60;;
16854;SDS011;8543;54.522;18.550;2022-09-09T00:08:41;5.00;;;2.40;;
16854;SDS011;8543;54.522;18.550;2022-09-09T00:11:15;5.60;;;2.90;;
16854;SDS011;8543;54.522;18.550;2022-09-09T00:13:52;6.20;;;2.80;;
16854;SDS011;8543;54.522;18.550;2022-09-09T00:16:24;4.80;;;2.50;;
16854;SDS011;8543;54.522;18.550;2022-09-09T00:18:56;5.40;;;2.30;;
16854;SDS011;8543;54.522;18.550;2022-09-09T00:21:30;6.60;;;2.60;;
16854;SDS011;8543;54.522;18.550;2022-09-09T00:24:08;4.70;;;2.70;;
16854;SDS011;8543;54.522;18.550;2022-09-09T00:26:42;6.40;;;2.70;;
16854;SDS011;8543;54.522;18.550;2022-09-09T00:29:33;5.70;;;2.60;;
16854;SDS011;8543;54.522;18.550;2022-09-09T00:32:11;5.00;;;2.40;;
16854;SDS011;8543;54.522;18.550;2022-09-09T00:34:51;6.50;;;2.30;;
16854;SDS011;8543;54.522;18.550;2022-09-09T00:37:19;5.30;;;2.60;;
16854;SDS011;8543;54.522;18.550;2022-09-09T00:39:45;5.30;;;2.50;;
16854;SDS011;8543;54.522;18.550;2022-09-09T00:42:20;8.00;;;3.00;;
16854;SDS011;8543;54.522;18.550;2022-09-09T00:44:51;6.30;;;2.60;;
16854;SDS011;8543;54.522;18.550;2022-09-09T00:58:01;4.10;;;2.40;;
16854;SDS011;8543;54.522;18.550;2022-09-09T01:00:30;6.30;;;2.80;;
16854;SDS011;8543;54.522;18.550;2022-09-09T01:03:10;6.50;;;2.70;;
16854;SDS011;8543;54.522;18.550;2022-09-09T01:10:50;6.00;;;2.60;;
16854;SDS011;8543;54.522;18.550;2022-09-09T01:15:59;6.10;;;2.40;;
16854;SDS011;8543;54.522;18.550;2022-09-09T01:18:40;4.80;;;2.70;;
16854;SDS011;8543;54.522;18.550;2022-09-09T01:21:14;5.50;;;2.30;;
16854;SDS011;8543;54.522;18.550;2022-09-09T01:26:54;4.40;;;2.50;;
16854;SDS011;8543;54.522;18.550;2022-09-09T01:29:23;8.30;;;2.40;;
16854;SDS011;8543;54.522;18.550;2022-09-09T01:34:18;6.10;;;2.40;;
16854;SDS011;8543;54.522;18.550;2022-09-09T01:39:22;4.60;;;2.10;;
16854;SDS011;8543;54.522;18.550;2022-09-09T01:41:48;6.20;;;2.40;;
16854;SDS011;8543;54.522;18.550;2022-09-09T01:44:13;4.30;;;2.20;;
16854;SDS011;8543;54.522;18.550;2022-09-09T01:46:39;5.30;;;2.30;;
16854;SDS011;8543;54.522;18.550;2022-09-09T01:49:05;5.30;;;2.30;;
16854;SDS011;8543;54.522;18.550;2022-09-09T01:51:32;5.60;;;2.50;;
16854;SDS011;8543;54.522;18.550;2022-09-09T01:53:58;6.50;;;2.60;;
16854;SDS011;8543;54.522;18.550;2022-09-09T01:59:17;3.90;;;2.40;;
16854;SDS011;8543;54.522;18.550;2022-09-09T02:10:00;5.90;;;2.40;;
16854;SDS011;8543;54.522;18.550;2022-09-09T02:12:28;6.60;;;2.90;;
16854;SDS011;8543;54.522;18.550;2022-09-09T02:15:38;3.90;;;2.40;;
16854;SDS011;8543;54.522;18.550;2022-09-09T02:17:45;5.40;;;2.60;;
16854;SDS011;8543;54.522;18.550;2022-09-09T02:20:12;5.80;;;2.70;;
16854;SDS011;8543;54.522;18.550;2022-09-09T02:22:41;11.00;;;2.70;;
16854;SDS011;8543;54.522;18.550;2022-09-09T02:25:09;6.30;;;2.60;;
16854;SDS011;8543;54.522;18.550;2022-09-09T02:27:36;5.20;;;2.40;;
16854;SDS011;8543;54.522;18.550;2022-09-09T02:30:02;5.30;;;2.50;;
16854;SDS011;8543;54.522;18.550;2022-09-09T02:32:29;5.60;;;2.50;;
16854;SDS011;8543;54.522;18.550;2022-09-09T02:34:57;4.80;;;2.30;;
16854;SDS011;8543;54.522;18.550;2022-09-09T02:37:37;6.50;;;2.70;;
16854;SDS011;8543;54.522;18.550;2022-09-09T02:40:08;7.90;;;2.50;;
16854;SDS011;8543;54.522;18.550;2022-09-09T02:42:38;7.10;;;2.80;;
16854;SDS011;8543;54.522;18.550;2022-09-09T02:45:05;4.40;;;2.30;;
16854;SDS011;8543;54.522;18.550;2022-09-09T02:47:34;5.40;;;2.40;;
16854;SDS011;8543;54.522;18.550;2022-09-09T02:50:10;4.20;;;2.50;;
16854;SDS011;8543;54.522;18.550;2022-09-09T02:58:15;6.80;;;2.60;;
16854;SDS011;8543;54.522;18.550;2022-09-09T03:00:42;4.50;;;2.30;;
16854;SDS011;8543;54.522;18.550;2022-09-09T03:03:09;4.50;;;2.10;;
16854;SDS011;8543;54.522;18.550;2022-09-09T03:05:35;4.30;;;2.30;;
16854;SDS011;8543;54.522;18.550;2022-09-09T03:08:00;5.70;;;2.40;;
16854;SDS011;8543;54.522;18.550;2022-09-09T03:10:27;3.90;;;2.30;;
16854;SDS011;8543;54.522;18.550;2022-09-09T03:12:52;4.50;;;2.30;;
16854;SDS011;8543;54.522;18.550;2022-09-09T03:15:17;4.60;;;2.30;;
16854;SDS011;8543;54.522;18.550;2022-09-09T03:17:43;5.90;;;2.70;;
16854;SDS011;8543;54.522;18.550;2022-09-09T03:20:08;4.30;;;2.30;;
16854;SDS011;8543;54.522;18.550;2022-09-09T03:22:34;5.20;;;2.50;;
16854;SDS011;8543;54.522;18.550;2022-09-09T03:25:00;7.20;;;2.60;;
16854;SDS011;8543;54.522;18.550;2022-09-09T03:27:27;4.60;;;2.60;;
16854;SDS011;8543;54.522;18.550;2022-09-09T03:29:53;3.70;;;2.10;;
16854;SDS011;8543;54.522;18.550;2022-09-09T03:32:19;4.00;;;2.20;;
16854;SDS011;8543;54.522;18.550;2022-09-09T03:34:47;4.90;;;2.40;;
16854;SDS011;8543;54.522;18.550;2022-09-09T03:37:14;4.20;;;2.00;;
16854;SDS011;8543;54.522;18.550;2022-09-09T03:39:40;5.10;;;2.40;;
16854;SDS011;8543;54.522;18.550;2022-09-09T03:42:06;4.00;;;2.50;;
16854;SDS011;8543;54.522;18.550;2022-09-09T03:44:31;7.20;;;2.60;;
16854;SDS011;8543;54.522;18.550;2022-09-09T03:46:57;6.50;;;3.10;;
16854;SDS011;8543;54.522;18.550;2022-09-09T03:49:25;5.50;;;2.70;;
16854;SDS011;8543;54.522;18.550;2022-09-09T03:51:51;5.10;;;2.60;;
16854;SDS011;8543;54.522;18.550;2022-09-09T03:54:16;6.10;;;3.30;;
16854;SDS011;8543;54.522;18.550;2022-09-09T03:56:41;8.00;;;3.30;;
16854;SDS011;8543;54.522;18.550;2022-09-09T03:59:07;7.80;;;3.30;;
16854;SDS011;8543;54.522;18.550;2022-09-09T04:01:33;6.70;;;3.50;;
16854;SDS011;8543;54.522;18.550;2022-09-09T04:03:59;9.10;;;3.20;;
16854;SDS011;8543;54.522;18.550;2022-09-09T04:06:27;8.00;;;3.50;;
16854;SDS011;8543;54.522;18.550;2022-09-09T04:08:53;6.10;;;3.00;;
16854;SDS011;8543;54.522;18.550;2022-09-09T04:11:20;5.20;;;3.30;;
16854;SDS011;8543;54.522;18.550;2022-09-09T04:13:45;9.40;;;3.30;;
16854;SDS011;8543;54.522;18.550;2022-09-09T04:16:11;7.40;;;3.50;;
16854;SDS011;8543;54.522;18.550;2022-09-09T04:18:38;8.60;;;3.50;;
16854;SDS011;8543;54.522;18.550;2022-09-09T04:21:03;6.40;;;3.30;;
16854;SDS011;8543;54.522;18.550;2022-09-09T04:23:30;6.20;;;3.50;;
16854;SDS011;8543;54.522;18.550;2022-09-09T04:25:56;7.50;;;3.10;;
16854;SDS011;8543;54.522;18.550;2022-09-09T04:28:23;6.60;;;2.90;;
16854;SDS011;8543;54.522;18.550;2022-09-09T04:30:50;7.50;;;3.70;;
16854;SDS011;8543;54.522;18.550;2022-09-09T04:33:17;5.50;;;3.00;;
16854;SDS011;8543;54.522;18.550;2022-09-09T04:35:46;5.80;;;3.40;;
16854;SDS011;8543;54.522;18.550;2022-09-09T04:38:13;5.30;;;3.20;;
16854;SDS011;8543;54.522;18.550;2022-09-09T04:40:41;5.60;;;3.10;;
16854;SDS011;8543;54.522;18.550;2022-09-09T04:43:08;7.90;;;3.60;;
16854;SDS011;8543;54.522;18.550;2022-09-09T04:45:34;6.30;;;3.60;;
16854;SDS011;8543;54.522;18.550;2022-09-09T04:47:59;7.20;;;3.60;;
16854;SDS011;8543;54.522;18.550;2022-09-09T04:50:25;6.00;;;3.40;;
16854;SDS011;8543;54.522;18.550;2022-09-09T04:52:50;6.60;;;3.40;;
16854;SDS011;8543;54.522;18.550;2022-09-09T04:55:16;6.80;;;3.60;;
16854;SDS011;8543;54.522;18.550;2022-09-09T04:57:41;7.10;;;3.20;;
16854;SDS011;8543;54.522;18.550;2022-09-09T05:00:07;9.90;;;4.10;;
16854;SDS011;8543;54.522;18.550;2022-09-09T05:02:36;5.80;;;3.20;;
16854;SDS011;8543;54.522;18.550;2022-09-09T05:05:03;6.50;;;3.40;;
16854;SDS011;8543;54.522;18.550;2022-09-09T05:07:28;7.90;;;3.50;;
16854;SDS011;8543;54.522;18.550;2022-09-09T05:09:56;6.80;;;3.40;;
16854;SDS011;8543;54.522;18.550;2022-09-09T05:12:22;8.50;;;3.70;;
16854;SDS011;8543;54.522;18.550;2022-09-09T05:14:50;10.00;;;3.70;;
16854;SDS011;8543;54.522;18.550;2022-09-09T05:17:16;7.70;;;3.60;;
16854;SDS011;8543;54.522;18.550;2022-09-09T05:19:41;7.40;;;4.00;;
16854;SDS011;8543;54.522;18.550;2022-09-09T05:22:07;6.30;;;3.50;;
16854;SDS011;8543;54.522;18.550;2022-09-09T05:24:32;6.30;;;3.00;;
16854;SDS011;8543;54.522;18.550;2022-09-09T05:26:58;7.10;;;3.40;;
16854;SDS011;8543;54.522;18.550;2022-09-09T05:29:26;5.60;;;2.90;;
16854;SDS011;8543;54.522;18.550;2022-09-09T05:31:52;6.20;;;3.20;;
16854;SDS011;8543;54.522;18.550;2022-09-09T05:34:17;6.40;;;3.40;;
16854;SDS011;8543;54.522;18.550;2022-09-09T05:36:43;6.80;;;2.80;;
16854;SDS011;8543;54.522;18.550;2022-09-09T05:39:08;6.10;;;3.00;;
16854;SDS011;8543;54.522;18.550;2022-09-09T05:41:34;7.20;;;3.30;;
16854;SDS011;8543;54.522;18.550;2022-09-09T05:44:01;5.30;;;2.60;;
16854;SDS011;8543;54.522;18.550;2022-09-09T05:46:26;9.70;;;3.20;;
16854;SDS011;8543;54.522;18.550;2022-09-09T05:48:52;6.90;;;2.70;;
16854;SDS011;8543;54.522;18.550;2022-09-09T05:51:22;10.00;;;3.40;;
16854;SDS011;8543;54.522;18.550;2022-09-09T05:53:49;6.20;;;2.90;;
16854;SDS011;8543;54.522;18.550;2022-09-09T05:56:20;6.60;;;2.70;;
16854;SDS011;8543;54.522;18.550;2022-09-09T05:58:47;5.10;;;2.30;;
16854;SDS011;8543;54.522;18.550;2022-09-09T06:01:15;5.70;;;2.80;;
16854;SDS011;8543;54.522;18.550;2022-09-09T06:03:42;4.50;;;2.70;;
16854;SDS011;8543;54.522;18.550;2022-09-09T06:06:09;6.50;;;3.10;;
16854;SDS011;8543;54.522;18.550;2022-09-09T06:08:39;10.60;;;3.30;;
16854;SDS011;8543;54.522;18.550;2022-09-09T06:11:13;5.30;;;3.00;;
16854;SDS011;8543;54.522;18.550;2022-09-09T06:13:40;5.90;;;2.60;;
16854;SDS011;8543;54.522;18.550;2022-09-09T06:16:09;7.00;;;2.80;;
16854;SDS011;8543;54.522;18.550;2022-09-09T06:18:36;4.40;;;2.30;;
16854;SDS011;8543;54.522;18.550;2022-09-09T06:21:03;4.40;;;2.70;;
16854;SDS011;8543;54.522;18.550;2022-09-09T06:23:31;7.40;;;3.00;;
16854;SDS011;8543;54.522;18.550;2022-09-09T06:28:31;6.40;;;2.60;;
16854;SDS011;8543;54.522;18.550;2022-09-09T06:31:00;4.00;;;2.30;;
16854;SDS011;8543;54.522;18.550;2022-09-09T06:33:30;5.60;;;2.40;;
16854;SDS011;8543;54.522;18.550;2022-09-09T06:35:56;4.20;;;2.20;;
16854;SDS011;8543;54.522;18.550;2022-09-09T06:38:23;4.20;;;2.40;;
16854;SDS011;8543;54.522;18.550;2022-09-09T06:40:52;4.50;;;2.40;;
16854;SDS011;8543;54.522;18.550;2022-09-09T06:43:19;4.70;;;2.70;;
16854;SDS011;8543;54.522;18.550;2022-09-09T06:45:52;4.50;;;2.50;;
16854;SDS011;8543;54.522;18.550;2022-09-09T06:48:26;4.00;;;2.30;;
16854;SDS011;8543;54.522;18.550;2022-09-09T06:53:38;4.40;;;2.20;;
16854;SDS011;8543;54.522;18.550;2022-09-09T06:58:39;4.30;;;2.60;;
16854;SDS011;8543;54.522;18.550;2022-09-09T07:01:12;4.10;;;2.40;;
16854;SDS011;8543;54.522;18.550;2022-09-09T07:03:38;4.30;;;2.30;;
16854;SDS011;8543;54.522;18.550;2022-09-09T07:06:05;4.30;;;2.40;;
16854;SDS011;8543;54.522;18.550;2022-09-09T07:08:31;4.00;;;2.30;;
16854;SDS011;8543;54.522;18.550;2022-09-09T07:11:06;7.10;;;2.50;;
16854;SDS011;8543;54.522;18.550;2022-09-09T07:13:32;5.50;;;2.40;;
16854;SDS011;8543;54.522;18.550;2022-09-09T07:16:05;5.00;;;2.40;;
16854;SDS011;8543;54.522;18.550;2022-09-09T07:18:35;6.60;;;2.80;;
16854;SDS011;8543;54.522;18.550;2022-09-09T07:21:01;5.50;;;2.60;;
16854;SDS011;8543;54.522;18.550;2022-09-09T07:23:28;5.90;;;2.90;;
16854;SDS011;8543;54.522;18.550;2022-09-09T07:25:55;4.80;;;2.50;;
16854;SDS011;8543;54.522;18.550;2022-09-09T07:28:20;4.70;;;2.90;;
16854;SDS011;8543;54.522;18.550;2022-09-09T07:30:54;5.60;;;2.60;;
16854;SDS011;8543;54.522;18.550;2022-09-09T07:33:21;4.40;;;2.40;;
16854;SDS011;8543;54.522;18.550;2022-09-09T07:35:46;4.80;;;2.40;;
16854;SDS011;8543;54.522;18.550;2022-09-09T07:38:12;6.60;;;3.00;;
16854;SDS011;8543;54.522;18.550;2022-09-09T07:40:37;4.30;;;2.30;;
16854;SDS011;8543;54.522;18.550;2022-09-09T07:43:04;4.70;;;2.80;;
16854;SDS011;8543;54.522;18.550;2022-09-09T07:45:30;5.00;;;2.50;;
16854;SDS011;8543;54.522;18.550;2022-09-09T07:47:58;5.90;;;2.60;;
16854;SDS011;8543;54.522;18.550;2022-09-09T07:50:23;4.20;;;2.70;;
16854;SDS011;8543;54.522;18.550;2022-09-09T07:52:50;5.70;;;2.80;;
16854;SDS011;8543;54.522;18.550;2022-09-09T07:55:16;4.90;;;2.70;;
16854;SDS011;8543;54.522;18.550;2022-09-09T07:57:41;4.90;;;2.70;;
16854;SDS011;8543;54.522;18.550;2022-09-09T08:00:07;5.70;;;2.70;;
16854;SDS011;8543;54.522;18.550;2022-09-09T08:02:32;5.00;;;2.60;;
16854;SDS011;8543;54.522;18.550;2022-09-09T08:04:58;3.70;;;2.40;;
16854;SDS011;8543;54.522;18.550;2022-09-09T08:07:23;5.30;;;3.10;;
16854;SDS011;8543;54.522;18.550;2022-09-09T08:09:49;4.80;;;3.00;;
16854;SDS011;8543;54.522;18.550;2022-09-09T08:12:14;5.00;;;2.50;;
16854;SDS011;8543;54.522;18.550;2022-09-09T08:14:40;4.60;;;2.90;;
16854;SDS011;8543;54.522;18.550;2022-09-09T08:17:05;5.30;;;2.60;;
16854;SDS011;8543;54.522;18.550;2022-09-09T08:19:31;4.60;;;2.60;;
16854;SDS011;8543;54.522;18.550;2022-09-09T08:21:59;5.30;;;3.00;;
16854;SDS011;8543;54.522;18.550;2022-09-09T08:24:26;4.80;;;2.80;;
16854;SDS011;8543;54.522;18.550;2022-09-09T08:26:52;8.30;;;2.90;;
16854;SDS011;8543;54.522;18.550;2022-09-09T08:29:18;4.50;;;2.70;;
16854;SDS011;8543;54.522;18.550;2022-09-09T08:31:48;5.30;;;2.80;;
16854;SDS011;8543;54.522;18.550;2022-09-09T08:34:14;5.30;;;2.80;;
16854;SDS011;8543;54.522;18.550;2022-09-09T08:36:41;5.20;;;3.10;;
16854;SDS011;8543;54.522;18.550;2022-09-09T08:39:08;5.80;;;3.10;;
16854;SDS011;8543;54.522;18.550;2022-09-09T08:58:17;5.10;;;2.80;;
16854;SDS011;8543;54.522;18.550;2022-09-09T09:00:48;6.10;;;3.20;;
16854;SDS011;8543;54.522;18.550;2022-09-09T09:03:27;5.40;;;3.10;;
16854;SDS011;8543;54.522;18.550;2022-09-09T09:11:58;6.30;;;3.00;;
16854;SDS011;8543;54.522;18.550;2022-09-09T09:14:31;6.00;;;3.10;;
16854;SDS011;8543;54.522;18.550;2022-09-09T09:17:00;3.60;;;2.60;;
16854;SDS011;8543;54.522;18.550;2022-09-09T09:19:28;4.70;;;2.50;;
16854;SDS011;8543;54.522;18.550;2022-09-09T09:21:59;4.80;;;2.60;;
16854;SDS011;8543;54.522;18.550;2022-09-09T09:26:57;4.60;;;2.50;;
16854;SDS011;8543;54.522;18.550;2022-09-09T09:29:26;6.90;;;2.80;;
16854;SDS011;8543;54.522;18.550;2022-09-09T09:31:52;3.50;;;2.20;;
16854;SDS011;8543;54.522;18.550;2022-09-09T09:34:20;3.90;;;2.60;;
16854;SDS011;8543;54.522;18.550;2022-09-09T09:36:53;3.80;;;2.50;;
16854;SDS011;8543;54.522;18.550;2022-09-09T09:39:27;3.70;;;2.10;;
16854;SDS011;8543;54.522;18.550;2022-09-09T09:41:54;4.50;;;2.60;;
16854;SDS011;8543;54.522;18.550;2022-09-09T09:44:29;3.70;;;2.60;;
16854;SDS011;8543;54.522;18.550;2022-09-09T09:47:10;4.30;;;2.40;;
16854;SDS011;8543;54.522;18.550;2022-09-09T09:49:38;5.10;;;2.70;;
16854;SDS011;8543;54.522;18.550;2022-09-09T09:52:05;4.10;;;2.50;;
16854;SDS011;8543;54.522;18.550;2022-09-09T09:54:38;4.40;;;2.50;;
16854;SDS011;8543;54.522;18.550;2022-09-09T09:57:08;5.90;;;2.80;;
16854;SDS011;8543;54.522;18.550;2022-09-09T09:59:35;4.90;;;3.10;;
16854;SDS011;8543;54.522;18.550;2022-09-09T10:02:14;4.00;;;2.90;;
16854;SDS011;8543;54.522;18.550;2022-09-09T10:05:00;4.80;;;2.90;;
16854;SDS011;8543;54.522;18.550;2022-09-09T10:07:29;5.90;;;3.20;;
16854;SDS011;8543;54.522;18.550;2022-09-09T10:09:55;5.60;;;3.50;;
16854;SDS011;8543;54.522;18.550;2022-09-09T10:34:44;6.20;;;4.10;;
16854;SDS011;8543;54.522;18.550;2022-09-09T10:37:40;6.10;;;4.20;;
16854;SDS011;8543;54.522;18.550;2022-09-09T10:46:03;6.20;;;4.10;;
16854;SDS011;8543;54.522;18.550;2022-09-09T10:51:56;7.60;;;4.80;;
16854;SDS011;8543;54.522;18.550;2022-09-09T10:54:11;6.60;;;5.10;;
16854;SDS011;8543;54.522;18.550;2022-09-09T10:56:39;7.10;;;4.80;;
16854;SDS011;8543;54.522;18.550;2022-09-09T11:01:50;7.30;;;4.40;;
16854;SDS011;8543;54.522;18.550;2022-09-09T11:06:54;8.50;;;5.00;;
16854;SDS011;8543;54.522;18.550;2022-09-09T11:09:27;6.50;;;4.50;;
16854;SDS011;8543;54.522;18.550;2022-09-09T11:11:56;8.30;;;5.40;;
16854;SDS011;8543;54.522;18.550;2022-09-09T11:16:56;7.40;;;5.50;;
16854;SDS011;8543;54.522;18.550;2022-09-09T11:19:35;8.20;;;5.60;;
16854;SDS011;8543;54.522;18.550;2022-09-09T11:22:14;7.90;;;5.40;;
16854;SDS011;8543;54.522;18.550;2022-09-09T11:40:45;8.00;;;5.00;;
16854;SDS011;8543;54.522;18.550;2022-09-09T11:43:12;7.50;;;5.10;;
16854;SDS011;8543;54.522;18.550;2022-09-09T11:45:40;8.40;;;6.00;;
16854;SDS011;8543;54.522;18.550;2022-09-09T11:48:23;9.80;;;5.80;;
16854;SDS011;8543;54.522;18.550;2022-09-09T11:51:24;8.50;;;5.50;;
16854;SDS011;8543;54.522;18.550;2022-09-09T11:56:51;10.10;;;6.20;;
16854;SDS011;8543;54.522;18.550;2022-09-09T12:01:50;9.20;;;4.90;;
16854;SDS011;8543;54.522;18.550;2022-09-09T12:04:37;10.10;;;5.70;;
16854;SDS011;8543;54.522;18.550;2022-09-09T12:19:41;9.10;;;6.80;;
16854;SDS011;8543;54.522;18.550;2022-09-09T12:25:07;7.90;;;5.80;;
16854;SDS011;8543;54.522;18.550;2022-09-09T12:27:44;7.50;;;5.40;;
16854;SDS011;8543;54.522;18.550;2022-09-09T12:30:15;8.60;;;5.70;;
16854;SDS011;8543;54.522;18.550;2022-09-09T12:32:40;9.10;;;5.40;;
16854;SDS011;8543;54.522;18.550;2022-09-09T12:35:10;6.90;;;5.60;;
16854;SDS011;8543;54.522;18.550;2022-09-09T12:37:39;7.30;;;5.20;;
16854;SDS011;8543;54.522;18.550;2022-09-09T12:42:53;7.60;;;5.80;;
16854;SDS011;8543;54.522;18.550;2022-09-09T12:45:23;8.60;;;5.90;;
16854;SDS011;8543;54.522;18.550;2022-09-09T12:47:55;7.30;;;5.70;;
16854;SDS011;8543;54.522;18.550;2022-09-09T12:50:29;8.00;;;5.60;;
16854;SDS011;8543;54.522;18.550;2022-09-09T12:53:11;7.80;;;5.10;;
16854;SDS011;8543;54.522;18.550;2022-09-09T12:55:49;7.90;;;5.20;;
16854;SDS011;8543;54.522;18.550;2022-09-09T12:58:16;8.70;;;5.60;;
16854;SDS011;8543;54.522;18.550;2022-09-09T13:00:48;8.60;;;6.20;;
16854;SDS011;8543;54.522;18.550;2022-09-09T13:03:18;6.50;;;4.70;;
16854;SDS011;8543;54.522;18.550;2022-09-09T13:05:45;8.70;;;5.90;;
16854;SDS011;8543;54.522;18.550;2022-09-09T13:08:12;7.60;;;4.70;;
16854;SDS011;8543;54.522;18.550;2022-09-09T13:13:17;7.00;;;4.70;;
16854;SDS011;8543;54.522;18.550;2022-09-09T13:15:52;6.50;;;4.40;;
16854;SDS011;8543;54.522;18.550;2022-09-09T13:18:21;7.80;;;5.10;;
16854;SDS011;8543;54.522;18.550;2022-09-09T13:20:48;6.60;;;4.90;;
16854;SDS011;8543;54.522;18.550;2022-09-09T13:23:14;5.90;;;4.70;;
16854;SDS011;8543;54.522;18.550;2022-09-09T13:25:40;6.60;;;4.80;;
16854;SDS011;8543;54.522;18.550;2022-09-09T13:28:19;6.50;;;4.50;;
16854;SDS011;8543;54.522;18.550;2022-09-09T13:30:54;7.30;;;4.30;;
16854;SDS011;8543;54.522;18.550;2022-09-09T13:33:24;5.30;;;3.70;;
16854;SDS011;8543;54.522;18.550;2022-09-09T13:35:59;7.30;;;4.90;;
16854;SDS011;8543;54.522;18.550;2022-09-09T13:38:28;6.80;;;4.40;;
16854;SDS011;8543;54.522;18.550;2022-09-09T13:40:57;6.40;;;4.70;;
16854;SDS011;8543;54.522;18.550;2022-09-09T13:43:24;7.70;;;4.70;;
16854;SDS011;8543;54.522;18.550;2022-09-09T13:45:54;6.00;;;4.80;;
16854;SDS011;8543;54.522;18.550;2022-09-09T13:48:21;6.20;;;4.60;;
16854;SDS011;8543;54.522;18.550;2022-09-09T13:53:46;6.20;;;4.60;;
16854;SDS011;8543;54.522;18.550;2022-09-09T13:56:12;7.70;;;4.90;;
16854;SDS011;8543;54.522;18.550;2022-09-09T13:58:38;9.20;;;4.80;;
16854;SDS011;8543;54.522;18.550;2022-09-09T14:01:03;8.00;;;5.00;;
16854;SDS011;8543;54.522;18.550;2022-09-09T14:03:29;6.20;;;4.60;;
16854;SDS011;8543;54.522;18.550;2022-09-09T14:05:55;6.90;;;5.10;;
16854;SDS011;8543;54.522;18.550;2022-09-09T14:08:21;5.90;;;4.70;;
16854;SDS011;8543;54.522;18.550;2022-09-09T14:10:48;5.60;;;4.60;;
16854;SDS011;8543;54.522;18.550;2022-09-09T14:13:14;7.50;;;4.60;;
16854;SDS011;8543;54.522;18.550;2022-09-09T14:15:40;5.50;;;4.50;;
16854;SDS011;8543;54.522;18.550;2022-09-09T14:18:06;7.20;;;4.80;;
16854;SDS011;8543;54.522;18.550;2022-09-09T14:20:35;6.30;;;4.80;;
16854;SDS011;8543;54.522;18.550;2022-09-09T14:23:00;7.30;;;5.40;;
16854;SDS011;8543;54.522;18.550;2022-09-09T14:25:26;7.90;;;5.40;;
16854;SDS011;8543;54.522;18.550;2022-09-09T14:27:52;8.60;;;5.20;;
16854;SDS011;8543;54.522;18.550;2022-09-09T14:30:17;8.00;;;5.20;;
16854;SDS011;8543;54.522;18.550;2022-09-09T14:32:43;9.40;;;6.50;;
16854;SDS011;8543;54.522;18.550;2022-09-09T14:35:08;8.60;;;5.80;;
16854;SDS011;8543;54.522;18.550;2022-09-09T14:44:23;8.30;;;5.30;;
16854;SDS011;8543;54.522;18.550;2022-09-09T14:46:49;7.50;;;5.80;;
16854;SDS011;8543;54.522;18.550;2022-09-09T14:49:15;8.90;;;6.10;;
16854;SDS011;8543;54.522;18.550;2022-09-09T14:51:40;8.70;;;5.90;;
16854;SDS011;8543;54.522;18.550;2022-09-09T14:54:06;9.30;;;6.60;;
16854;SDS011;8543;54.522;18.550;2022-09-09T14:56:32;10.90;;;6.60;;
16854;SDS011;8543;54.522;18.550;2022-09-09T14:59:01;9.80;;;7.00;;
16854;SDS011;8543;54.522;18.550;2022-09-09T15:01:27;10.60;;;6.30;;
16854;SDS011;8543;54.522;18.550;2022-09-09T15:03:54;10.10;;;7.10;;
16854;SDS011;8543;54.522;18.550;2022-09-09T15:06:20;12.20;;;6.50;;
16854;SDS011;8543;54.522;18.550;2022-09-09T15:08:47;12.10;;;8.40;;
16854;SDS011;8543;54.522;18.550;2022-09-09T15:11:14;10.30;;;7.40;;
16854;SDS011;8543;54.522;18.550;2022-09-09T15:13:41;13.20;;;8.30;;
16854;SDS011;8543;54.522;18.550;2022-09-09T15:16:08;11.80;;;8.70;;
16854;SDS011;8543;54.522;18.550;2022-09-09T15:18:38;10.80;;;8.00;;
16854;SDS011;8543;54.522;18.550;2022-09-09T15:21:08;11.80;;;8.10;;
16854;SDS011;8543;54.522;18.550;2022-09-09T15:23:35;10.50;;;7.80;;
16854;SDS011;8543;54.522;18.550;2022-09-09T15:26:01;11.70;;;7.50;;
16854;SDS011;8543;54.522;18.550;2022-09-09T15:28:27;12.60;;;9.50;;
16854;SDS011;8543;54.522;18.550;2022-09-09T15:30:52;12.80;;;9.80;;
16854;SDS011;8543;54.522;18.550;2022-09-09T15:33:19;14.50;;;9.20;;
16854;SDS011;8543;54.522;18.550;2022-09-09T15:35:45;10.30;;;8.20;;
16854;SDS011;8543;54.522;18.550;2022-09-09T15:38:11;10.80;;;8.10;;
16854;SDS011;8543;54.522;18.550;2022-09-09T15:40:38;13.00;;;8.60;;
16854;SDS011;8543;54.522;18.550;2022-09-09T15:43:05;11.10;;;7.80;;
16854;SDS011;8543;54.522;18.550;2022-09-09T15:45:31;11.40;;;8.00;;
16854;SDS011;8543;54.522;18.550;2022-09-09T15:47:58;11.30;;;8.10;;
16854;SDS011;8543;54.522;18.550;2022-09-09T15:50:27;11.10;;;8.10;;
16854;SDS011;8543;54.522;18.550;2022-09-09T15:52:54;12.00;;;8.60;;
16854;SDS011;8543;54.522;18.550;2022-09-09T15:55:19;13.90;;;10.00;;
16854;SDS011;8543;54.522;18.550;2022-09-09T15:57:45;12.10;;;9.10;;
16854;SDS011;8543;54.522;18.550;2022-09-09T16:00:11;14.90;;;10.00;;
16854;SDS011;8543;54.522;18.550;2022-09-09T16:02:38;11.60;;;8.50;;
16854;SDS011;8543;54.522;18.550;2022-09-09T16:05:04;15.30;;;8.90;;
16854;SDS011;8543;54.522;18.550;2022-09-09T16:07:30;12.70;;;8.70;;
16854;SDS011;8543;54.522;18.550;2022-09-09T16:09:55;12.90;;;9.30;;
16854;SDS011;8543;54.522;18.550;2022-09-09T16:12:20;13.30;;;9.10;;
16854;SDS011;8543;54.522;18.550;2022-09-09T16:14:46;12.70;;;8.80;;
16854;SDS011;8543;54.522;18.550;2022-09-09T16:17:11;12.20;;;8.60;;
16854;SDS011;8543;54.522;18.550;2022-09-09T16:19:37;15.70;;;11.40;;
16854;SDS011;8543;54.522;18.550;2022-09-09T16:22:03;12.80;;;10.10;;
16854;SDS011;8543;54.522;18.550;2022-09-09T16:24:29;14.30;;;10.50;;
16854;SDS011;8543;54.522;18.550;2022-09-09T16:26:55;15.50;;;11.80;;
16854;SDS011;8543;54.522;18.550;2022-09-09T16:29:20;15.60;;;10.70;;
16854;SDS011;8543;54.522;18.550;2022-09-09T16:31:47;14.00;;;9.40;;
16854;SDS011;8543;54.522;18.550;2022-09-09T16:34:14;14.20;;;9.50;;
16854;SDS011;8543;54.522;18.550;2022-09-09T16:36:41;14.70;;;10.00;;
16854;SDS011;8543;54.522;18.550;2022-09-09T16:39:11;15.00;;;10.90;;
16854;SDS011;8543;54.522;18.550;2022-09-09T16:41:39;14.30;;;10.20;;
16854;SDS011;8543;54.522;18.550;2022-09-09T16:44:07;13.50;;;8.80;;
16854;SDS011;8543;54.522;18.550;2022-09-09T16:46:35;12.90;;;10.40;;
16854;SDS011;8543;54.522;18.550;2022-09-09T16:49:02;14.50;;;11.20;;
16854;SDS011;8543;54.522;18.550;2022-09-09T16:51:30;16.00;;;10.60;;
16854;SDS011;8543;54.522;18.550;2022-09-09T16:53:58;14.60;;;9.50;;
16854;SDS011;8543;54.522;18.550;2022-09-09T16:56:26;17.30;;;10.40;;
16854;SDS011;8543;54.522;18.550;2022-09-09T16:58:58;12.30;;;9.00;;
16854;SDS011;8543;54.522;18.550;2022-09-09T17:01:26;11.50;;;8.20;;
16854;SDS011;8543;54.522;18.550;2022-09-09T17:03:55;12.10;;;9.20;;
16854;SDS011;8543;54.522;18.550;2022-09-09T17:06:22;12.90;;;9.40;;
16854;SDS011;8543;54.522;18.550;2022-09-09T17:08:53;12.70;;;9.20;;
16854;SDS011;8543;54.522;18.550;2022-09-09T17:11:19;13.40;;;9.10;;
16854;SDS011;8543;54.522;18.550;2022-09-09T17:13:45;13.30;;;9.90;;
16854;SDS011;8543;54.522;18.550;2022-09-09T17:16:12;13.80;;;9.30;;
16854;SDS011;8543;54.522;18.550;2022-09-09T17:18:39;12.70;;;8.70;;
16854;SDS011;8543;54.522;18.550;2022-09-09T17:21:08;14.60;;;9.00;;
16854;SDS011;8543;54.522;18.550;2022-09-09T17:23:39;13.20;;;8.10;;
16854;SDS011;8543;54.522;18.550;2022-09-09T17:26:05;12.20;;;8.10;;
16854;SDS011;8543;54.522;18.550;2022-09-09T17:28:35;11.50;;;8.00;;
16854;SDS011;8543;54.522;18.550;2022-09-09T17:31:01;10.60;;;7.80;;
16854;SDS011;8543;54.522;18.550;2022-09-09T17:33:28;12.60;;;9.00;;
16854;SDS011;8543;54.522;18.550;2022-09-09T17:35:56;12.30;;;9.10;;
16854;SDS011;8543;54.522;18.550;2022-09-09T17:38:26;13.90;;;9.00;;
16854;SDS011;8543;54.522;18.550;2022-09-09T17:41:09;15.70;;;11.30;;